Time,TemperatureF,DewpointF,PressureIn,WindDirection,WindDirectionDegrees,WindSpeedMPH,WindSpeedGustMPH,Humidity,HourlyPrecipIn,Conditions,Clouds,dailyrainin,SoftwareType,DateUTC
2013-01-26 00:02:00,26.0,21.0,-100.00,West,265,3.0,6.0,79,0.00,,,-99.99,,2013-01-26 07:02:00,
2013-01-26 00:12:00,26.0,21.0,-100.00,West,265,3.0,6.0,79,0.00,,,-99.99,,2013-01-26 07:12:00,
2013-01-26 00:21:00,25.0,20.0,-100.00,WNW,295,1.0,7.0,79,0.00,,,-99.99,,2013-01-26 07:21:00,
2013-01-26 00:33:00,23.0,18.0,-100.00,NNW,330,3.0,12.0,80,0.00,,,-99.99,,2013-01-26 07:33:00,
2013-01-26 00:41:00,22.0,17.0,-100.00,SW,230,4.0,11.0,81,0.00,,,-99.99,,2013-01-26 07:41:00,
2013-01-26 00:52:00,25.0,20.0,-100.00,SSW,195,3.0,9.0,82,0.00,,,-99.99,,2013-01-26 07:52:00,
2013-01-26 01:02:00,25.0,20.0,-100.00,West,270,4.0,9.0,79,0.00,,,-99.99,,2013-01-26 08:02:00,
2013-01-26 01:11:00,26.0,20.0,-100.00,SE,140,2.0,6.0,78,0.00,,,-99.99,,2013-01-26 08:11:00,
2013-01-26 01:21:00,24.0,19.0,-100.00,South,170,2.0,4.0,79,0.00,,,-99.99,,2013-01-26 08:21:00,
2013-01-26 01:32:00,25.0,20.0,-100.00,South,170,4.0,8.0,80,0.00,,,-99.99,,2013-01-26 08:32:00,
2013-01-26 01:42:00,24.0,19.0,-100.00,SSW,200,4.0,9.0,81,0.00,,,-99.99,,2013-01-26 08:42:00,
2013-01-26 01:53:00,24.0,19.0,-100.00,SW,215,1.0,6.0,80,0.00,,,-99.99,,2013-01-26 08:53:00,
2013-01-26 02:02:00,24.0,19.0,-100.00,NW,325,2.0,4.0,81,0.00,,,-99.99,,2013-01-26 09:02:00,
2013-01-26 02:11:00,21.0,16.0,-100.00,WNW,290,4.0,9.0,81,0.00,,,-99.99,,2013-01-26 09:11:00,
2013-01-26 02:22:00,21.0,17.0,-100.00,SW,220,4.0,5.0,81,0.00,,,-99.99,,2013-01-26 09:22:00,
2013-01-26 02:32:00,22.0,18.0,-100.00,SE,145,2.0,6.0,82,0.00,,,-99.99,,2013-01-26 09:32:00,
2013-01-26 02:42:00,22.0,17.0,-100.00,NE,45,2.0,4.0,82,0.00,,,-99.99,,2013-01-26 09:42:00,
2013-01-26 02:51:00,21.0,17.0,-100.00,SE,135,3.0,7.0,83,0.00,,,-99.99,,2013-01-26 09:51:00,
2013-01-26 03:01:00,23.0,19.0,-100.00,SE,130,1.0,6.0,83,0.00,,,-99.99,,2013-01-26 10:01:00,
2013-01-26 03:12:00,23.0,19.0,-100.00,SSE,160,5.0,6.0,83,0.00,,,-99.99,,2013-01-26 10:12:00,
2013-01-26 03:21:00,23.0,19.0,-100.00,SSE,165,5.0,9.0,83,0.00,,,-99.99,,2013-01-26 10:21:00,
2013-01-26 03:31:00,22.0,18.0,-100.00,ENE,65,2.0,6.0,83,0.00,,,-99.99,,2013-01-26 10:31:00,
2013-01-26 03:42:00,21.0,17.0,-100.00,NW,305,4.0,7.0,84,0.00,,,-99.99,,2013-01-26 10:42:00,
2013-01-26 03:52:00,22.0,18.0,-100.00,SE,145,1.0,2.0,84,0.00,,,-99.99,,2013-01-26 10:52:00,
2013-01-26 04:01:00,18.0,14.0,-100.00,NW,315,7.0,10.0,84,0.00,,,-99.99,,2013-01-26 11:01:00,
2013-01-26 04:12:00,19.0,16.0,-100.00,NNE,15,4.0,6.0,86,0.00,,,-99.99,,2013-01-26 11:12:00,
2013-01-26 04:22:00,21.0,18.0,-100.00,SSE,160,3.0,8.0,86,0.00,,,-99.99,,2013-01-26 11:22:00,
2013-01-26 04:32:00,19.0,16.0,-100.00,NW,305,5.0,7.0,86,0.00,,,-99.99,,2013-01-26 11:32:00,
2013-01-26 04:42:00,21.0,18.0,-100.00,NNW,330,1.0,6.0,87,0.00,,,-99.99,,2013-01-26 11:42:00,
2013-01-26 04:52:00,20.0,17.0,-100.00,NNE,25,3.0,11.0,87,0.00,,,-99.99,,2013-01-26 11:52:00,
2013-01-26 05:02:00,22.0,19.0,-100.00,WNW,290,2.0,7.0,88,0.00,,,-99.99,,2013-01-26 12:02:00,
2013-01-26 05:12:00,15.0,12.0,-100.00,WNW,285,4.0,6.0,86,0.00,,,-99.99,,2013-01-26 12:12:00,
2013-01-26 05:22:00,16.0,13.0,-100.00,WSW,240,4.0,6.0,87,0.00,,,-99.99,,2013-01-26 12:22:00,
2013-01-26 05:33:00,17.0,14.0,-100.00,West,270,6.0,9.0,87,0.00,,,-99.99,,2013-01-26 12:33:00,
2013-01-26 05:42:00,19.0,16.0,-100.00,West,280,3.0,12.0,86,0.00,,,-99.99,,2013-01-26 12:42:00,
2013-01-26 05:52:00,17.0,13.0,-100.00,WNW,300,4.0,7.0,86,0.00,,,-99.99,,2013-01-26 12:52:00,
2013-01-26 06:03:00,17.0,13.0,-100.00,NNW,335,4.0,7.0,86,0.00,,,-99.99,,2013-01-26 13:03:00,
2013-01-26 06:12:00,19.0,15.0,-100.00,NE,55,3.0,8.0,87,0.00,,,-99.99,,2013-01-26 13:12:00,
2013-01-26 06:22:00,21.0,17.0,-100.00,WSW,250,4.0,6.0,86,0.00,,,-99.99,,2013-01-26 13:22:00,
2013-01-26 06:32:00,21.0,17.0,-100.00,NNW,335,4.0,6.0,85,0.00,,,-99.99,,2013-01-26 13:32:00,
2013-01-26 06:42:00,21.0,17.0,-100.00,North,5,9.0,10.0,84,0.00,,,-99.99,,2013-01-26 13:42:00,
2013-01-26 06:52:00,19.0,15.0,-100.00,NNW,335,7.0,11.0,83,0.00,,,-99.99,,2013-01-26 13:52:00,
2013-01-26 07:03:00,21.0,17.0,-100.00,NNW,340,9.0,11.0,83,0.00,,,-99.99,,2013-01-26 14:03:00,
2013-01-26 07:12:00,23.0,18.0,-100.00,NNW,335,11.0,13.0,81,0.00,,,-99.99,,2013-01-26 14:12:00,
2013-01-26 07:21:00,24.0,19.0,-100.00,NNW,330,8.0,14.0,79,0.00,,,-99.99,,2013-01-26 14:21:00,
2013-01-26 07:32:00,25.0,19.0,-100.00,NNW,340,11.0,13.0,77,0.00,,,-99.99,,2013-01-26 14:32:00,
2013-01-26 07:43:00,26.0,19.0,-100.00,NW,310,8.0,21.0,74,0.00,,,-99.99,,2013-01-26 14:43:00,
2013-01-26 07:52:00,23.0,15.0,-100.00,SSE,155,3.0,9.0,72,0.00,,,-99.99,,2013-01-26 14:52:00,
2013-01-26 08:03:00,22.0,16.0,-100.00,SW,235,4.0,7.0,75,0.00,,,-99.99,,2013-01-26 15:03:00,
2013-01-26 08:12:00,23.0,17.0,-100.00,SW,220,6.0,6.0,75,0.00,,,-99.99,,2013-01-26 15:12:00,
2013-01-26 08:22:00,22.0,15.0,-100.00,NE,50,2.0,6.0,74,0.00,,,-99.99,,2013-01-26 15:22:00,
2013-01-26 08:32:00,24.0,17.0,-100.00,ENE,60,1.0,5.0,73,0.00,,,-99.99,,2013-01-26 15:32:00,
2013-01-26 08:43:00,25.0,17.0,-100.00,NNE,25,4.0,5.0,70,0.00,,,-99.99,,2013-01-26 15:43:00,
2013-01-26 08:52:00,26.0,19.0,-100.00,East,95,1.0,4.0,72,0.00,,,-99.99,,2013-01-26 15:52:00,
2013-01-26 09:02:00,29.0,20.0,-100.00,SSE,155,4.0,6.0,69,0.00,,,-99.99,,2013-01-26 16:02:00,
2013-01-26 09:12:00,25.0,18.0,-100.00,SSE,160,4.0,6.0,73,0.00,,,-99.99,,2013-01-26 16:12:00,
2013-01-26 09:22:00,24.0,18.0,-100.00,SE,135,4.0,5.0,78,0.00,,,-99.99,,2013-01-26 16:22:00,
2013-01-26 09:32:00,25.0,19.0,-100.00,NE,40,1.0,2.0,78,0.00,,,-99.99,,2013-01-26 16:32:00,
2013-01-26 09:42:00,25.0,19.0,-100.00,NNE,25,1.0,2.0,77,0.00,,,-99.99,,2013-01-26 16:42:00,
2013-01-26 09:53:00,26.0,20.0,-100.00,NE,45,2.0,3.0,77,0.00,,,-99.99,,2013-01-26 16:53:00,
2013-01-26 10:03:00,26.0,20.0,-100.00,NE,50,4.0,4.0,79,0.00,,,-99.99,,2013-01-26 17:03:00,
2013-01-26 10:12:00,26.0,21.0,-100.00,NE,45,4.0,4.0,79,0.00,,,-99.99,,2013-01-26 17:12:00,
2013-01-26 10:22:00,27.0,21.0,-100.00,NE,55,4.0,4.0,77,0.00,,,-99.99,,2013-01-26 17:22:00,
2013-01-26 10:33:00,28.0,21.0,-100.00,East,100,2.0,4.0,73,0.00,,,-99.99,,2013-01-26 17:33:00,
2013-01-26 10:42:00,29.0,22.0,-100.00,SE,135,2.0,3.0,73,0.00,,,-99.99,,2013-01-26 17:42:00,
2013-01-26 10:52:00,30.0,22.0,-100.00,SSE,155,1.0,3.0,71,0.00,,,-99.99,,2013-01-26 17:52:00,
2013-01-26 11:02:00,31.0,22.0,-100.00,South,180,2.0,3.0,69,0.00,,,-99.99,,2013-01-26 18:02:00,
2013-01-26 11:12:00,31.0,21.0,-100.00,SE,130,2.0,4.0,65,0.00,,,-99.99,,2013-01-26 18:12:00,
2013-01-26 11:22:00,32.0,21.0,-100.00,SE,135,2.0,4.0,62,0.00,,,-99.99,,2013-01-26 18:22:00,
2013-01-26 11:33:00,33.0,21.0,-100.00,NNE,20,1.0,2.0,59,0.00,,,-99.99,,2013-01-26 18:33:00,
2013-01-26 11:42:00,35.0,21.0,-100.00,NNW,340,2.0,3.0,56,0.00,,,-99.99,,2013-01-26 18:42:00,
2013-01-26 11:52:00,37.0,21.0,-100.00,NNE,20,1.0,4.0,51,0.00,,,-99.99,,2013-01-26 18:52:00,
2013-01-26 12:03:00,38.0,20.0,-100.00,NNE,30,2.0,4.0,46,0.00,,,-99.99,,2013-01-26 19:03:00,
2013-01-26 12:12:00,37.0,18.0,-100.00,ENE,60,2.0,6.0,45,0.00,,,-99.99,,2013-01-26 19:12:00,
2013-01-26 12:22:00,36.0,17.0,-100.00,ESE,120,3.0,7.0,44,0.00,,,-99.99,,2013-01-26 19:22:00,
2013-01-26 12:32:00,37.0,17.0,-100.00,SE,135,3.0,6.0,44,0.00,,,-99.99,,2013-01-26 19:32:00,
2013-01-26 12:42:00,37.0,17.0,-100.00,ESE,110,4.0,6.0,43,0.00,,,-99.99,,2013-01-26 19:42:00,
2013-01-26 12:52:00,37.0,17.0,-100.00,ENE,60,3.0,7.0,43,0.00,,,-99.99,,2013-01-26 19:52:00,
2013-01-26 13:02:00,40.0,17.0,-100.00,SE,140,3.0,8.0,39,0.00,,,-99.99,,2013-01-26 20:02:00,
2013-01-26 13:11:00,40.0,16.0,-100.00,South,185,3.0,7.0,37,0.00,,,-99.99,,2013-01-26 20:11:00,
2013-01-26 13:21:00,39.0,14.0,-100.00,South,175,4.0,9.0,36,0.00,,,-99.99,,2013-01-26 20:21:00,
2013-01-26 13:32:00,39.0,14.0,-100.00,SSW,195,5.0,6.0,36,0.00,,,-99.99,,2013-01-26 20:32:00,
2013-01-26 13:42:00,39.0,15.0,-100.00,SE,125,1.0,5.0,36,0.00,,,-99.99,,2013-01-26 20:42:00,
2013-01-26 13:52:00,40.0,15.0,-100.00,SSW,205,4.0,6.0,35,0.00,,,-99.99,,2013-01-26 20:52:00,
2013-01-26 14:02:00,38.0,14.0,-100.00,South,190,4.0,7.0,36,0.00,,,-99.99,,2013-01-26 21:02:00,
2013-01-26 14:12:00,38.0,14.0,-100.00,South,190,4.0,9.0,37,0.00,,,-99.99,,2013-01-26 21:12:00,
2013-01-26 14:22:00,38.0,15.0,-100.00,SSW,195,3.0,7.0,38,0.00,,,-99.99,,2013-01-26 21:22:00,
2013-01-26 14:32:00,38.0,15.0,-100.00,SSW,205,4.0,6.0,38,0.00,,,-99.99,,2013-01-26 21:32:00,
2013-01-26 14:42:00,38.0,15.0,-100.00,South,180,4.0,6.0,38,0.00,,,-99.99,,2013-01-26 21:42:00,
2013-01-26 14:51:00,38.0,15.0,-100.00,SSW,200,3.0,6.0,38,0.00,,,-99.99,,2013-01-26 21:51:00,
2013-01-26 15:01:00,37.0,15.0,-100.00,SW,215,4.0,6.0,38,0.00,,,-99.99,,2013-01-26 22:01:00,
2013-01-26 15:11:00,38.0,15.0,-100.00,SSW,210,2.0,6.0,38,0.00,,,-99.99,,2013-01-26 22:11:00,
2013-01-26 15:21:00,38.0,15.0,-100.00,SSW,210,5.0,7.0,38,0.00,,,-99.99,,2013-01-26 22:21:00,
2013-01-26 15:32:00,37.0,16.0,-100.00,SW,220,5.0,7.0,40,0.00,,,-99.99,,2013-01-26 22:32:00,
2013-01-26 15:42:00,37.0,16.0,-100.00,SW,225,4.0,6.0,41,0.00,,,-99.99,,2013-01-26 22:42:00,
2013-01-26 15:51:00,36.0,22.0,-100.00,South,185,11.0,14.0,56,0.00,,,-99.99,,2013-01-26 22:51:00,
2013-01-26 16:01:00,34.0,26.0,-100.00,SSW,200,7.0,13.0,73,0.00,,,-99.99,,2013-01-26 23:01:00,
2013-01-26 16:12:00,33.0,29.0,-100.00,SSW,200,7.0,11.0,83,0.00,,,-99.99,,2013-01-26 23:12:00,
2013-01-26 16:22:00,33.0,29.0,-100.00,SSW,200,6.0,9.0,87,0.00,,,-99.99,,2013-01-26 23:22:00,
2013-01-26 16:32:00,31.0,28.0,-100.00,WNW,295,4.0,8.0,88,0.00,,,-99.99,,2013-01-26 23:32:00,
2013-01-26 16:41:00,31.0,28.0,-100.00,NW,320,4.0,4.0,88,0.00,,,-99.99,,2013-01-26 23:41:00,
2013-01-26 16:52:00,31.0,28.0,-100.00,NNW,335,2.0,4.0,88,0.00,,,-99.99,,2013-01-26 23:52:00,
2013-01-26 17:02:00,31.0,28.0,-100.00,NNW,345,2.0,38.0,88,0.00,,,-99.99,,2013-01-27 00:02:00,
2013-01-26 17:11:00,31.0,28.0,-100.00,North,0,4.0,5.0,88,0.00,,,-99.99,,2013-01-27 00:11:00,
2013-01-26 17:21:00,31.0,28.0,-100.00,North,350,5.0,17.0,88,0.00,,,-99.99,,2013-01-27 00:21:00,
2013-01-26 17:32:00,30.0,27.0,-100.00,North,350,5.0,8.0,88,0.00,,,-99.99,,2013-01-27 00:32:00,
2013-01-26 17:41:00,30.0,28.0,-100.00,North,350,3.0,6.0,88,0.00,,,-99.99,,2013-01-27 00:41:00,
2013-01-26 17:51:00,30.0,27.0,-100.00,NNE,15,3.0,6.0,88,0.00,,,-99.99,,2013-01-27 00:51:00,
2013-01-26 18:01:00,30.0,28.0,-100.00,NE,35,1.0,4.0,89,0.00,,,-99.99,,2013-01-27 01:01:00,
2013-01-26 18:11:00,30.0,28.0,-100.00,NNW,345,1.0,2.0,89,0.00,,,-99.99,,2013-01-27 01:11:00,
2013-01-26 18:22:00,30.0,28.0,-100.00,NNE,30,1.0,2.0,89,0.00,,,-99.99,,2013-01-27 01:22:00,
2013-01-26 18:32:00,30.0,28.0,-100.00,North,10,1.0,1.0,89,0.10,,,-99.99,,2013-01-27 01:32:00,
2013-01-26 18:42:00,30.0,28.0,-100.00,NNW,345,1.0,12.0,89,0.00,,,-99.99,,2013-01-27 01:42:00,
2013-01-26 18:52:00,30.0,28.0,-100.00,NNW,335,3.0,35.0,90,0.10,,,-99.99,,2013-01-27 01:52:00,
2013-01-26 19:01:00,30.0,28.0,-100.00,NW,305,2.0,3.0,90,0.00,,,-99.99,,2013-01-27 02:01:00,
2013-01-26 19:11:00,30.0,28.0,-100.00,NW,320,2.0,4.0,90,0.00,,,-99.99,,2013-01-27 02:11:00,
2013-01-26 19:21:00,30.0,28.0,-100.00,NNW,330,3.0,14.0,90,0.00,,,-99.99,,2013-01-27 02:21:00,
2013-01-26 19:31:00,30.0,28.0,-100.00,NNW,335,4.0,34.0,90,0.10,,,-99.99,,2013-01-27 02:31:00,
2013-01-26 19:41:00,30.0,28.0,-100.00,NNW,340,2.0,38.0,90,0.10,,,-99.99,,2013-01-27 02:41:00,
2013-01-26 19:52:00,30.0,28.0,-100.00,NNW,345,1.0,14.0,90,0.00,,,-99.99,,2013-01-27 02:52:00,
2013-01-26 20:02:00,30.0,28.0,-100.00,WNW,295,2.0,28.0,90,0.00,,,-99.99,,2013-01-27 03:02:00,
2013-01-26 20:11:00,30.0,28.0,-100.00,WNW,295,1.0,7.0,90,0.00,,,-99.99,,2013-01-27 03:11:00,
2013-01-26 20:21:00,30.0,28.0,-100.00,West,265,1.0,1.0,90,0.00,,,-99.99,,2013-01-27 03:21:00,
2013-01-26 20:32:00,30.0,28.0,-100.00,WSW,255,3.0,4.0,90,0.00,,,-99.99,,2013-01-27 03:32:00,
2013-01-26 20:42:00,30.0,28.0,-100.00,West,260,4.0,4.0,90,0.00,,,-99.99,,2013-01-27 03:42:00,
2013-01-26 20:51:00,30.0,28.0,-100.00,WSW,245,4.0,5.0,90,0.00,,,-99.99,,2013-01-27 03:51:00,
2013-01-26 21:01:00,30.0,28.0,-100.00,WSW,240,4.0,5.0,90,0.00,,,-99.99,,2013-01-27 04:01:00,
2013-01-26 21:11:00,30.0,28.0,-100.00,SW,230,6.0,29.0,90,0.00,,,-99.99,,2013-01-27 04:11:00,
2013-01-26 21:21:00,30.0,28.0,-100.00,SW,225,6.0,7.0,90,0.00,,,-99.99,,2013-01-27 04:21:00,
2013-01-26 21:32:00,31.0,28.0,-100.00,SW,225,6.0,19.0,90,0.00,,,-99.99,,2013-01-27 04:32:00,
2013-01-26 21:41:00,30.0,28.0,-100.00,SW,235,4.0,6.0,90,0.00,,,-99.99,,2013-01-27 04:41:00,
2013-01-26 21:51:00,30.0,28.0,-100.00,SW,220,4.0,21.0,90,0.00,,,-99.99,,2013-01-27 04:51:00,
2013-01-26 22:03:00,30.0,28.0,-100.00,SSW,205,3.0,5.0,90,0.00,,,-99.99,,2013-01-27 05:03:00,
2013-01-26 22:12:00,30.0,28.0,-100.00,South,185,3.0,4.0,90,0.00,,,-99.99,,2013-01-27 05:12:00,
2013-01-26 22:22:00,30.0,28.0,-100.00,South,185,2.0,3.0,90,0.00,,,-99.99,,2013-01-27 05:22:00,
2013-01-26 22:32:00,30.0,27.0,-100.00,South,185,3.0,3.0,90,0.00,,,-99.99,,2013-01-27 05:32:00,
2013-01-26 22:41:00,30.0,27.0,-100.00,South,185,2.0,3.0,90,0.00,,,-99.99,,2013-01-27 05:41:00,
2013-01-26 22:52:00,30.0,28.0,-100.00,South,170,3.0,4.0,90,0.00,,,-99.99,,2013-01-27 05:52:00,
2013-01-26 23:01:00,30.0,28.0,-100.00,SSE,165,3.0,4.0,90,0.00,,,-99.99,,2013-01-27 06:01:00,
2013-01-26 23:11:00,30.0,28.0,-100.00,SSE,155,1.0,5.0,90,0.00,,,-99.99,,2013-01-27 06:11:00,
2013-01-26 23:21:00,30.0,27.0,-100.00,SSE,150,2.0,3.0,90,0.00,,,-99.99,,2013-01-27 06:21:00,
2013-01-26 23:32:00,30.0,27.0,-100.00,SSE,160,1.0,2.0,90,0.00,,,-99.99,,2013-01-27 06:32:00,
2013-01-26 23:42:00,30.0,27.0,-100.00,South,185,1.0,2.0,90,0.00,,,-99.99,,2013-01-27 06:42:00,
2013-01-26 23:51:00,30.0,27.0,-100.00,SSW,205,1.0,2.0,90,0.00,,,-99.99,,2013-01-27 06:51:00,